Upstream stations:
Downstream station:
SHEF ID: SASO2 Little River near Sasakwa, OK
STATION TYPE:
Regulating: Stage = 26.00, Flow = 13802
STAGE RIV-FLOW BAT-LOAD
ft cfs volt
Ccp-Rev Ccp-Rev Ccp-Rev
(US/Central)
07/28 00:00 6.17 760 12.33
07/28 01:00 6.16 757 12.33
07/28 02:00 6.16 757 12.33
07/28 03:00 6.17 760 12.33
07/28 04:00 6.17 760 12.33
07/28 05:00 6.19 768 12.33
07/28 06:00 6.19 768 12.33
07/28 07:00 6.19 768 12.33
07/28 08:00 6.19 768 12.33
07/28 09:00 6.20 771 12.33
07/28 10:00 6.21 775 12.33
07/28 11:00 6.20 771 12.33
07/28 12:00 6.20 771 12.33
07/28 13:00 6.19 768 12.33
07/28 14:00 6.19 768 12.41
07/28 15:00 6.19 768 12.41
07/28 16:00 6.16 757 12.49
07/28 17:00 6.16 757 12.49
07/28 18:00 6.14 750 12.49
07/28 19:00 6.15 753 12.49
07/28 20:00 6.15 753 12.41
07/28 21:00 6.12 742 12.41
07/28 22:00 6.13 746 12.41
07/28 23:00 6.13 746 12.41